createdAt,value
2023-01-28T00:01:50.917Z,20.42
2023-01-28T00:04:19.663Z,18.20
2023-01-28T00:06:48.471Z,13.57
2023-01-28T00:09:17.208Z,16.98
2023-01-28T00:11:45.416Z,17.50
2023-01-28T00:14:13.557Z,15.23
2023-01-28T00:16:41.594Z,15.10
2023-01-28T00:19:09.467Z,18.48
2023-01-28T00:21:37.633Z,20.77
2023-01-28T00:24:07.193Z,20.33
2023-01-28T00:26:35.556Z,19.63
2023-01-28T00:29:03.492Z,20.73
2023-01-28T00:31:31.388Z,19.50
2023-01-28T00:34:01.192Z,18.27
2023-01-28T00:36:29.276Z,17.63
2023-01-28T00:38:59.657Z,20.95
2023-01-28T00:41:30.145Z,21.05
2023-01-28T00:43:59.606Z,17.92
2023-01-28T00:46:28.046Z,19.63
2023-01-28T00:48:56.363Z,19.50
2023-01-28T00:51:24.476Z,21.75
2023-01-28T00:53:52.633Z,20.13
2023-01-28T00:56:21.268Z,22.97
2023-01-28T01:01:23.288Z,18.85
2023-01-28T01:03:57.699Z,19.83
2023-01-28T01:06:26.617Z,20.20
2023-01-28T01:08:55.610Z,19.88
2023-01-28T01:11:24.985Z,18.98
2023-01-28T01:13:58.740Z,21.30
2023-01-28T01:16:33.323Z,18.90
2023-01-28T01:19:01.362Z,18.48
2023-01-28T01:21:30.905Z,19.70
2023-01-28T01:23:58.492Z,18.55
2023-01-28T01:26:30.080Z,20.83
2023-01-28T01:28:58.458Z,17.65
2023-01-28T01:31:26.306Z,17.23
2023-01-28T01:33:53.830Z,18.98
2023-01-28T01:36:22.324Z,19.67
2023-01-28T01:38:55.367Z,20.25
2023-01-28T01:41:31.171Z,19.10
2023-01-28T01:44:05.927Z,19.45
2023-01-28T01:46:41.350Z,19.65
2023-01-28T01:49:28.800Z,19.30
2023-01-28T01:52:10.852Z,16.15
2023-01-28T01:54:42.668Z,17.45
2023-01-28T01:57:16.153Z,19.08
2023-01-28T02:00:07.613Z,19.85
2023-01-28T02:02:47.764Z,19.67
2023-01-28T02:05:21.316Z,19.23
2023-01-28T02:08:20.979Z,20.70
2023-01-28T02:11:02.366Z,19.45
2023-01-28T02:13:57.169Z,19.98
2023-01-28T02:16:26.248Z,20.10
2023-01-28T02:18:54.121Z,20.33
2023-01-28T02:21:26.892Z,17.48
2023-01-28T02:24:33.650Z,21.27
2023-01-28T02:27:37.876Z,20.80
2023-01-28T02:30:25.220Z,21.73
2023-01-28T02:33:04.466Z,19.67
2023-01-28T02:35:39.638Z,20.48
2023-01-28T02:38:17.283Z,21.42
2023-01-28T02:41:02.549Z,21.17
2023-01-28T02:43:43.401Z,21.67
2023-01-28T02:46:44.519Z,22.20
2023-01-28T02:49:42.992Z,20.60
2023-01-28T02:52:55.668Z,22.42
2023-01-28T02:56:29.496Z,23.15
2023-01-28T02:59:31.309Z,20.58
2023-01-28T03:02:25.881Z,20.88
2023-01-28T03:05:30.903Z,21.13
2023-01-28T03:07:59.120Z,21.08
2023-01-28T03:10:28.684Z,21.55
2023-01-28T03:13:17.152Z,21.83
2023-01-28T03:16:07.430Z,19.50
2023-01-28T03:19:06.367Z,20.92
2023-01-28T03:22:03.489Z,24.40
2023-01-28T03:25:06.648Z,19.70
2023-01-28T03:28:22.096Z,20.92
2023-01-28T03:31:39.277Z,20.10
2023-01-28T03:34:28.548Z,20.23
2023-01-28T03:36:56.860Z,18.83
2023-01-28T03:39:33.690Z,18.90
2023-01-28T03:42:07.111Z,19.90
2023-01-28T03:44:56.064Z,20.85
2023-01-28T03:47:30.544Z,21.00
2023-01-28T03:50:02.343Z,20.70
2023-01-28T03:52:35.428Z,20.92
2023-01-28T03:55:21.017Z,21.08
2023-01-28T03:57:48.561Z,21.02
2023-01-28T04:00:20.253Z,19.50
2023-01-28T04:02:48.002Z,17.55
2023-01-28T04:05:20.294Z,18.42
2023-01-28T04:07:54.681Z,18.17
2023-01-28T04:10:41.671Z,16.02
2023-01-28T04:13:14.797Z,17.83
2023-01-28T04:15:43.584Z,18.25
2023-01-28T04:18:12.178Z,18.80
2023-01-28T04:20:40.793Z,18.37
2023-01-28T04:23:08.823Z,19.27
2023-01-28T04:25:36.808Z,18.25
2023-01-28T04:28:08.524Z,19.08
2023-01-28T04:30:36.532Z,17.13
2023-01-28T04:33:23.142Z,17.60
2023-01-28T04:36:03.183Z,17.35
2023-01-28T04:38:54.227Z,16.75
2023-01-28T04:41:37.147Z,18.83
2023-01-28T04:44:11.153Z,19.70
2023-01-28T04:46:53.854Z,16.95
2023-01-28T04:49:35.536Z,15.77
2023-01-28T04:52:38.792Z,16.48
2023-01-28T04:55:16.988Z,16.63
2023-01-28T04:57:48.768Z,16.80
2023-01-28T05:00:17.409Z,17.00
2023-01-28T05:02:45.251Z,17.52
2023-01-28T05:05:13.214Z,17.25
2023-01-28T05:08:01.558Z,16.33
2023-01-28T05:10:30.006Z,18.45
2023-01-28T05:12:58.976Z,17.20
2023-01-28T05:15:26.609Z,16.67
2023-01-28T05:18:00.065Z,18.67
2023-01-28T05:20:33.931Z,16.83
2023-01-28T05:23:03.556Z,18.23
2023-01-28T05:25:43.394Z,16.88
2023-01-28T05:28:11.333Z,16.75
2023-01-28T05:30:39.726Z,16.13
2023-01-28T05:33:07.523Z,17.77
2023-01-28T05:35:36.461Z,18.80
2023-01-28T05:38:04.337Z,18.00
2023-01-28T05:40:32.654Z,17.60
2023-01-28T05:43:00.828Z,19.63
2023-01-28T05:45:54.602Z,17.83
2023-01-28T05:48:28.207Z,18.08
2023-01-28T05:51:19.059Z,19.40
2023-01-28T05:53:54.710Z,17.52
2023-01-28T05:56:23.545Z,20.20
2023-01-28T05:58:51.327Z,18.45
2023-01-28T06:01:20.596Z,18.30
2023-01-28T06:03:53.696Z,19.77
2023-01-28T06:06:21.917Z,20.52
2023-01-28T06:08:49.667Z,20.38
2023-01-28T06:11:23.579Z,20.17
2023-01-28T06:13:54.567Z,18.77
2023-01-28T06:16:40.710Z,20.15
2023-01-28T06:19:32.812Z,18.55
2023-01-28T06:22:00.422Z,19.88
2023-01-28T06:24:28.232Z,17.75
2023-01-28T06:26:55.846Z,18.27
2023-01-28T06:29:23.875Z,22.48
2023-01-28T06:31:51.349Z,23.25
2023-01-28T06:34:19.234Z,21.60
2023-01-28T06:36:46.679Z,20.63
2023-01-28T06:39:14.842Z,23.23
2023-01-28T06:41:42.481Z,20.95
2023-01-28T06:44:10.258Z,21.15
2023-01-28T06:46:37.797Z,20.55
2023-01-28T06:49:05.571Z,22.08
2023-01-28T06:51:33.054Z,21.35
2023-01-28T06:54:01.413Z,20.85
2023-01-28T06:56:28.842Z,23.77
2023-01-28T06:58:56.757Z,24.65
2023-01-28T07:01:24.415Z,22.80
2023-01-28T07:03:52.200Z,22.00
2023-01-28T07:06:19.742Z,22.25
2023-01-28T07:08:48.281Z,22.33
2023-01-28T07:11:16.578Z,22.88
2023-01-28T07:13:44.991Z,23.20
2023-01-28T07:16:12.437Z,19.90
2023-01-28T07:18:40.173Z,21.30
2023-01-28T07:21:07.685Z,23.15
2023-01-28T07:23:35.571Z,22.77
2023-01-28T07:26:04.633Z,15.60
2023-01-28T07:28:32.918Z,22.60
2023-01-28T07:31:00.604Z,22.52
2023-01-28T07:33:28.578Z,25.30
2023-01-28T07:35:56.092Z,23.30
2023-01-28T07:38:23.773Z,24.60
2023-01-28T07:40:51.750Z,25.27
2023-01-28T07:43:20.362Z,25.73
2023-01-28T07:45:50.799Z,23.73
2023-01-28T07:48:18.680Z,21.65
2023-01-28T07:50:48.651Z,24.30
2023-01-28T07:53:17.734Z,25.63
2023-01-28T07:55:45.333Z,25.38
2023-01-28T07:58:13.175Z,27.00
2023-01-28T08:00:40.715Z,23.48
2023-01-28T08:03:16.925Z,26.83
2023-01-28T08:05:51.866Z,25.05
2023-01-28T08:08:20.078Z,27.13
2023-01-28T08:10:48.381Z,25.40
2023-01-28T08:13:17.871Z,24.58
2023-01-28T08:15:46.970Z,28.15
2023-01-28T08:18:17.236Z,25.75
2023-01-28T08:20:47.302Z,26.80
2023-01-28T08:23:17.487Z,26.17
2023-01-28T08:25:46.157Z,27.17
2023-01-28T08:28:16.087Z,25.58
2023-01-28T08:30:44.134Z,23.60
2023-01-28T08:33:15.451Z,26.77
2023-01-28T08:35:43.208Z,28.02
2023-01-28T08:38:13.555Z,25.65
2023-01-28T08:40:41.358Z,26.23
2023-01-28T08:43:09.612Z,26.40
2023-01-28T08:45:37.154Z,23.00
2023-01-28T08:48:07.980Z,23.67
2023-01-28T08:50:38.868Z,27.95
2023-01-28T08:53:13.719Z,25.38
2023-01-28T08:55:41.758Z,26.08
2023-01-28T08:58:17.524Z,28.77
2023-01-28T09:00:46.336Z,27.50
2023-01-28T09:03:14.143Z,26.80
2023-01-28T09:05:42.334Z,24.95
2023-01-28T09:08:14.614Z,25.45
2023-01-28T09:10:43.052Z,27.70
2023-01-28T09:13:14.993Z,25.88
2023-01-28T09:15:43.075Z,25.23
2023-01-28T09:18:11.802Z,24.55
2023-01-28T09:20:40.029Z,25.17
2023-01-28T09:23:08.655Z,24.95
2023-01-28T09:25:37.558Z,26.30
2023-01-28T09:28:07.526Z,23.33
2023-01-28T09:30:37.385Z,24.85
2023-01-28T09:33:06.783Z,24.50
2023-01-28T09:35:35.351Z,25.33
2023-01-28T09:38:03.892Z,26.02
2023-01-28T09:40:42.291Z,25.92
2023-01-28T09:43:59.758Z,27.05
2023-01-28T09:46:38.999Z,24.13
2023-01-28T09:49:33.078Z,24.75
2023-01-28T09:52:01.893Z,23.95
2023-01-28T09:54:44.128Z,23.48
2023-01-28T09:57:25.845Z,27.88
2023-01-28T09:59:53.895Z,26.67
2023-01-28T10:02:23.994Z,24.92
2023-01-28T10:05:40.957Z,28.35
2023-01-28T10:08:46.958Z,26.40
2023-01-28T10:12:11.097Z,26.20
2023-01-28T10:14:53.928Z,24.90
2023-01-28T10:17:37.912Z,28.02
2023-01-28T10:20:19.357Z,28.63
2023-01-28T10:23:12.630Z,24.55
2023-01-28T10:25:45.172Z,28.50
2023-01-28T10:28:25.590Z,27.55
2023-01-28T10:30:53.686Z,30.30
2023-01-28T10:33:40.083Z,30.00
2023-01-28T10:36:09.473Z,30.85
2023-01-28T10:38:37.763Z,30.63
2023-01-28T10:41:08.741Z,29.08
2023-01-28T10:43:41.845Z,29.23
2023-01-28T10:46:33.889Z,29.00
2023-01-28T10:49:18.993Z,29.27
2023-01-28T10:51:46.776Z,30.13
2023-01-28T10:54:27.227Z,31.52
2023-01-28T10:57:19.097Z,29.80
2023-01-28T10:59:49.819Z,31.05
2023-01-28T11:02:36.585Z,32.90
2023-01-28T11:05:17.729Z,32.97
2023-01-28T11:07:45.777Z,32.95
2023-01-28T11:10:34.734Z,32.17
2023-01-28T11:13:05.458Z,22.73
2023-01-28T11:15:34.057Z,32.42
2023-01-28T11:18:08.462Z,33.50
2023-01-28T11:20:49.632Z,32.15
2023-01-28T11:23:34.305Z,33.28
2023-01-28T11:26:37.584Z,34.70
2023-01-28T11:29:06.044Z,33.00
2023-01-28T11:31:44.114Z,32.78
2023-01-28T11:34:19.765Z,33.65
2023-01-28T11:36:53.973Z,33.05
2023-01-28T11:39:27.644Z,34.88
2023-01-28T11:42:04.027Z,35.70
2023-01-28T11:44:31.643Z,37.45
2023-01-28T11:47:17.679Z,36.13
2023-01-28T11:50:25.866Z,35.08
2023-01-28T11:53:06.791Z,33.70
2023-01-28T11:56:06.555Z,33.60
2023-01-28T11:59:03.752Z,34.35
2023-01-28T12:02:21.532Z,35.25
2023-01-28T12:05:42.638Z,35.17
2023-01-28T12:08:25.066Z,36.25
2023-01-28T12:11:17.725Z,38.15
2023-01-28T12:13:53.577Z,37.35
2023-01-28T12:16:41.716Z,27.77
2023-01-28T12:19:23.852Z,36.43
2023-01-28T12:22:09.795Z,30.85
2023-01-28T12:25:03.571Z,37.50
2023-01-28T12:28:01.612Z,34.75
2023-01-28T12:31:25.769Z,38.47
2023-01-28T12:34:18.892Z,36.17
2023-01-28T12:36:54.790Z,38.88
2023-01-28T12:39:58.816Z,34.70
2023-01-28T12:42:38.152Z,38.38
2023-01-28T12:45:12.037Z,28.70
2023-01-28T12:47:43.673Z,36.50
2023-01-28T12:50:37.844Z,37.25
2023-01-28T12:53:49.180Z,37.42
2023-01-28T12:56:22.789Z,38.75
2023-01-28T12:58:56.789Z,35.47
2023-01-28T13:01:43.135Z,37.85
2023-01-28T13:04:33.670Z,35.63
2023-01-28T13:07:41.286Z,36.67
2023-01-28T13:10:38.705Z,41.72
2023-01-28T13:13:08.024Z,34.92
2023-01-28T13:15:40.772Z,40.50
2023-01-28T13:18:48.537Z,39.53
2023-01-28T13:21:27.829Z,40.08
2023-01-28T13:24:19.990Z,33.10
2023-01-28T13:26:56.648Z,40.35
2023-01-28T13:29:34.310Z,39.30
2023-01-28T13:32:23.624Z,19.52
2023-01-28T13:35:02.146Z,38.50
2023-01-28T13:37:43.915Z,42.33
2023-01-28T13:40:14.941Z,41.35
2023-01-28T13:42:42.925Z,43.30
2023-01-28T13:45:16.957Z,41.67
2023-01-28T13:47:49.154Z,42.15
2023-01-28T13:50:23.227Z,42.78
2023-01-28T13:53:43.183Z,43.95
2023-01-28T13:56:25.986Z,40.85
2023-01-28T13:59:02.465Z,41.05
2023-01-28T14:02:05.539Z,42.92
2023-01-28T14:04:45.021Z,42.15
2023-01-28T14:07:43.386Z,36.17
2023-01-28T14:10:59.602Z,35.90
2023-01-28T14:13:44.879Z,33.92
2023-01-28T14:16:52.347Z,36.78
2023-01-28T14:19:28.464Z,40.67
2023-01-28T14:21:57.001Z,39.47
2023-01-28T14:24:26.095Z,40.30
2023-01-28T14:26:58.617Z,40.75
2023-01-28T14:29:59.186Z,37.28
2023-01-28T14:32:31.733Z,39.88
2023-01-28T14:35:09.420Z,38.65
2023-01-28T14:37:38.839Z,41.55
2023-01-28T14:40:16.877Z,40.03
2023-01-28T14:42:52.548Z,40.58
2023-01-28T14:45:57.983Z,38.13
2023-01-28T14:49:08.422Z,39.05
2023-01-28T14:52:02.688Z,42.60
2023-01-28T14:55:14.815Z,40.03
2023-01-28T14:58:16.813Z,38.47
2023-01-28T15:00:55.823Z,44.47
2023-01-28T15:03:25.491Z,42.80
2023-01-28T15:06:25.392Z,43.55
2023-01-28T15:11:26.107Z,38.58
2023-01-28T15:13:59.600Z,40.08
2023-01-28T15:16:35.015Z,38.40
2023-01-28T15:19:03.029Z,36.15
2023-01-28T15:21:31.205Z,36.90
2023-01-28T15:24:01.394Z,39.47
2023-01-28T15:26:34.724Z,37.92
2023-01-28T15:29:02.822Z,37.88
2023-01-28T15:31:34.618Z,39.15
2023-01-28T15:34:16.633Z,36.67
2023-01-28T15:36:44.899Z,34.58
2023-01-28T15:39:23.462Z,36.50
2023-01-28T15:42:03.252Z,38.63
2023-01-28T15:44:46.552Z,37.65
2023-01-28T15:47:43.033Z,39.97
2023-01-28T15:50:21.271Z,38.72
2023-01-28T15:52:49.529Z,37.67
2023-01-28T15:55:41.766Z,39.20
2023-01-28T15:58:26.481Z,39.05
2023-01-28T16:01:09.174Z,34.55
2023-01-28T16:03:40.106Z,35.45
2023-01-28T16:06:23.877Z,39.45
2023-01-28T16:09:02.643Z,36.08
2023-01-28T16:11:45.029Z,40.00
2023-01-28T16:14:54.386Z,39.03
2023-01-28T16:17:36.169Z,38.78
2023-01-28T16:20:19.407Z,39.53
2023-01-28T16:22:47.599Z,41.38
2023-01-28T16:25:24.182Z,39.83
2023-01-28T16:27:52.426Z,43.28
2023-01-28T16:30:20.080Z,42.38
2023-01-28T16:32:48.613Z,40.70
2023-01-28T16:35:23.519Z,42.97
2023-01-28T16:37:51.811Z,40.38
2023-01-28T16:40:23.209Z,41.13
2023-01-28T16:42:55.761Z,38.83
2023-01-28T16:45:25.394Z,40.85
2023-01-28T16:47:53.796Z,43.25
2023-01-28T16:50:23.132Z,42.55
2023-01-28T16:52:54.040Z,41.17
2023-01-28T16:55:23.297Z,41.30
2023-01-28T16:57:55.732Z,40.92
2023-01-28T17:00:26.332Z,41.35
2023-01-28T17:02:55.178Z,42.40
2023-01-28T17:05:23.608Z,43.17
2023-01-28T17:07:55.173Z,40.67
2023-01-28T17:12:50.964Z,40.55
2023-01-28T17:15:19.370Z,39.25
2023-01-28T17:17:53.011Z,40.80
2023-01-28T17:20:20.661Z,42.67
2023-01-28T17:22:48.633Z,40.53
2023-01-28T17:25:16.955Z,41.10
2023-01-28T17:27:45.164Z,42.10
2023-01-28T17:30:13.767Z,31.83
2023-01-28T17:32:41.678Z,37.88
2023-01-28T17:35:10.591Z,37.53
2023-01-28T17:37:38.439Z,38.63
2023-01-28T17:40:06.773Z,39.92
2023-01-28T17:42:34.531Z,43.15
2023-01-28T17:45:03.237Z,41.10
2023-01-28T17:47:31.794Z,38.72
2023-01-28T17:49:59.403Z,40.85
2023-01-28T17:52:27.337Z,27.23
2023-01-28T17:54:54.784Z,40.92
2023-01-28T17:57:23.148Z,37.83
2023-01-28T17:59:50.606Z,27.00
2023-01-28T18:02:18.540Z,37.55
2023-01-28T18:04:46.050Z,38.55
2023-01-28T18:07:13.967Z,38.80
2023-01-28T18:09:44.047Z,39.17
2023-01-28T18:12:15.874Z,40.35
2023-01-28T18:14:43.450Z,40.10
2023-01-28T18:17:11.781Z,40.30
2023-01-28T18:19:40.455Z,40.88
2023-01-28T18:22:08.902Z,42.38
2023-01-28T18:24:36.597Z,39.58
2023-01-28T18:27:04.593Z,42.30
2023-01-28T18:29:32.816Z,38.28
2023-01-28T18:32:00.967Z,37.50
2023-01-28T18:34:31.717Z,41.28
2023-01-28T18:36:59.802Z,40.00
2023-01-28T18:39:30.369Z,41.05
2023-01-28T18:41:59.529Z,43.30
2023-01-28T18:44:30.207Z,31.05
2023-01-28T18:46:58.149Z,40.72
2023-01-28T18:49:25.728Z,38.40
2023-01-28T18:51:54.164Z,40.53
2023-01-28T18:54:21.846Z,42.83
2023-01-28T18:56:50.067Z,40.25
2023-01-28T18:59:17.687Z,39.28
2023-01-28T19:01:47.935Z,41.40
2023-01-28T19:04:16.547Z,40.67
2023-01-28T19:06:45.199Z,38.47
2023-01-28T19:09:15.865Z,37.97
2023-01-28T19:11:44.943Z,39.55
2023-01-28T19:14:14.406Z,39.92
2023-01-28T19:16:42.781Z,41.08
2023-01-28T19:19:10.853Z,39.72
2023-01-28T19:21:38.736Z,36.72
2023-01-28T19:24:09.839Z,39.15
2023-01-28T19:26:39.348Z,38.58
2023-01-28T19:29:09.835Z,39.80
2023-01-28T19:31:39.215Z,38.83
2023-01-28T19:34:07.257Z,39.50
2023-01-28T19:36:35.739Z,37.35
2023-01-28T19:39:07.678Z,39.72
2023-01-28T19:41:37.316Z,39.28
2023-01-28T19:44:06.336Z,36.67
2023-01-28T19:49:09.249Z,38.63
2023-01-28T19:51:37.334Z,40.05
2023-01-28T19:54:05.120Z,42.15
2023-01-28T19:56:36.935Z,38.47
2023-01-28T19:59:04.855Z,39.22
2023-01-28T20:01:32.729Z,31.80
2023-01-28T20:04:02.089Z,38.90
2023-01-28T20:06:31.772Z,34.65
2023-01-28T20:11:38.522Z,36.90
2023-01-28T20:14:06.127Z,36.15
2023-01-28T20:16:37.074Z,39.08
2023-01-28T20:19:09.576Z,37.75
2023-01-28T20:21:45.503Z,33.75
2023-01-28T20:24:20.428Z,38.67
2023-01-28T20:26:55.282Z,36.95
2023-01-28T20:29:33.374Z,37.58
2023-01-28T20:32:17.756Z,39.33
2023-01-28T20:34:58.909Z,38.03
2023-01-28T20:37:35.485Z,39.50
2023-01-28T20:40:11.506Z,37.58
2023-01-28T20:42:48.174Z,39.83
2023-01-28T20:48:19.199Z,38.88
2023-01-28T20:50:58.895Z,38.53
2023-01-28T20:56:27.093Z,36.72
2023-01-28T20:59:11.018Z,38.58
2023-01-28T21:01:48.723Z,38.45
2023-01-28T21:04:54.911Z,39.08
2023-01-28T21:07:35.176Z,40.10
2023-01-28T21:10:20.717Z,39.38
2023-01-28T21:12:56.616Z,29.55
2023-01-28T21:15:35.745Z,34.30
2023-01-28T21:18:18.568Z,35.30
2023-01-28T21:21:06.763Z,33.90
2023-01-28T21:23:45.614Z,40.35
2023-01-28T21:26:27.385Z,39.13
2023-01-28T21:29:08.940Z,36.33
2023-01-28T21:31:47.148Z,35.35
2023-01-28T21:34:25.195Z,36.20
2023-01-28T21:36:57.237Z,33.63
2023-01-28T21:39:25.634Z,35.00
2023-01-28T21:42:04.598Z,35.75
2023-01-28T21:44:48.422Z,35.60
2023-01-28T21:47:29.102Z,36.42
2023-01-28T21:50:11.501Z,38.03
2023-01-28T21:52:56.436Z,36.78
2023-01-28T21:55:45.807Z,35.42
2023-01-28T21:58:47.654Z,33.80
2023-01-28T22:01:27.965Z,34.10
2023-01-28T22:04:08.918Z,35.80
2023-01-28T22:06:51.066Z,35.67
2023-01-28T22:09:29.308Z,35.10
2023-01-28T22:12:11.294Z,35.17
2023-01-28T22:14:45.527Z,34.65
2023-01-28T22:17:34.505Z,33.22
2023-01-28T22:20:11.936Z,27.25
2023-01-28T22:22:47.222Z,35.08
2023-01-28T22:25:28.327Z,34.92
2023-01-28T22:28:03.914Z,35.72
2023-01-28T22:30:38.808Z,35.53
2023-01-28T22:33:18.138Z,34.70
2023-01-28T22:38:41.834Z,31.13
2023-01-28T22:41:25.170Z,33.50
2023-01-28T22:43:59.202Z,31.92
2023-01-28T22:46:43.251Z,36.92
2023-01-28T22:49:23.561Z,32.13
2023-01-28T22:52:02.113Z,34.47
2023-01-28T22:54:32.413Z,33.47
2023-01-28T22:57:01.637Z,33.33
2023-01-28T22:59:29.268Z,34.97
2023-01-28T23:01:58.364Z,33.22
2023-01-28T23:04:29.707Z,27.25
2023-01-28T23:07:00.408Z,31.58
2023-01-28T23:09:28.539Z,33.85
2023-01-28T23:11:56.646Z,34.58
2023-01-28T23:14:42.754Z,32.78
2023-01-28T23:17:29.242Z,34.38
2023-01-28T23:20:16.097Z,30.02
2023-01-28T23:23:02.695Z,31.23
2023-01-28T23:25:30.353Z,31.83
2023-01-28T23:27:58.111Z,32.47
2023-01-28T23:30:25.649Z,33.10
2023-01-28T23:32:58.267Z,33.22
2023-01-28T23:35:27.658Z,33.08
2023-01-28T23:37:56.348Z,31.10
2023-01-28T23:40:24.726Z,35.00
2023-01-28T23:42:53.340Z,34.85
2023-01-28T23:45:22.363Z,32.67
2023-01-28T23:47:50.693Z,29.05
2023-01-28T23:50:18.815Z,33.28
2023-01-28T23:52:46.773Z,35.50
2023-01-28T23:55:16.098Z,34.80
2023-01-28T23:57:43.948Z,33.25
